sensor_id;sensor_type;location;lat;lon;timestamp;temperature;humidity
14154;DHT22;7157;53.144;7.570;2022-08-11T00:01:59;18.67;77.72
14154;DHT22;7157;53.144;7.570;2022-08-11T00:12:03;18.49;78.39
14154;DHT22;7157;53.144;7.570;2022-08-11T00:22:20;18.40;78.65
14154;DHT22;7157;53.144;7.570;2022-08-11T00:32:23;18.24;78.86
14154;DHT22;7157;53.144;7.570;2022-08-11T00:42:42;18.30;78.72
14154;DHT22;7157;53.144;7.570;2022-08-11T00:52:49;18.04;80.01
14154;DHT22;7157;53.144;7.570;2022-08-11T01:03:17;17.98;79.40
14154;DHT22;7157;53.144;7.570;2022-08-11T01:13:42;17.85;79.22
14154;DHT22;7157;53.144;7.570;2022-08-11T01:24:24;17.96;79.02
14154;DHT22;7157;53.144;7.570;2022-08-11T01:45:28;17.59;80.01
14154;DHT22;7157;53.144;7.570;2022-08-11T01:55:39;17.61;79.72
14154;DHT22;7157;53.144;7.570;2022-08-11T02:05:56;17.69;79.46
14154;DHT22;7157;53.144;7.570;2022-08-11T02:16:16;17.32;80.01
14154;DHT22;7157;53.144;7.570;2022-08-11T02:26:22;17.25;80.05
14154;DHT22;7157;53.144;7.570;2022-08-11T02:36:37;17.33;79.88
14154;DHT22;7157;53.144;7.570;2022-08-11T02:46:52;17.03;80.53
14154;DHT22;7157;53.144;7.570;2022-08-11T02:57:03;17.00;80.71
14154;DHT22;7157;53.144;7.570;2022-08-11T03:07:16;16.84;82.01
14154;DHT22;7157;53.144;7.570;2022-08-11T03:17:35;16.72;82.45
14154;DHT22;7157;53.144;7.570;2022-08-11T03:27:47;16.80;81.72
14154;DHT22;7157;53.144;7.570;2022-08-11T03:37:55;16.58;81.72
14154;DHT22;7157;53.144;7.570;2022-08-11T03:48:09;16.70;81.04
14154;DHT22;7157;53.144;7.570;2022-08-11T03:58:31;16.67;81.08
14154;DHT22;7157;53.144;7.570;2022-08-11T04:09:00;16.59;80.85
14154;DHT22;7157;53.144;7.570;2022-08-11T04:30:06;16.50;80.86
14154;DHT22;7157;53.144;7.570;2022-08-11T04:51:13;16.64;80.76
14154;DHT22;7157;53.144;7.570;2022-08-11T05:01:54;16.70;81.41
14154;DHT22;7157;53.144;7.570;2022-08-11T05:12:27;16.81;81.68
14154;DHT22;7157;53.144;7.570;2022-08-11T05:22:32;17.03;81.65
14154;DHT22;7157;53.144;7.570;2022-08-11T05:33:04;17.33;81.91
14154;DHT22;7157;53.144;7.570;2022-08-11T05:43:26;17.75;81.64
14154;DHT22;7157;53.144;7.570;2022-08-11T05:54:08;18.15;81.40
14154;DHT22;7157;53.144;7.570;2022-08-11T06:04:30;18.54;81.27
14154;DHT22;7157;53.144;7.570;2022-08-11T06:14:41;18.84;81.00
14154;DHT22;7157;53.144;7.570;2022-08-11T06:24:51;19.15;80.60
14154;DHT22;7157;53.144;7.570;2022-08-11T06:35:04;19.59;79.60
14154;DHT22;7157;53.144;7.570;2022-08-11T06:45:19;19.95;78.21
14154;DHT22;7157;53.144;7.570;2022-08-11T06:55:28;20.33;77.04
14154;DHT22;7157;53.144;7.570;2022-08-11T07:06:06;20.89;75.11
14154;DHT22;7157;53.144;7.570;2022-08-11T07:16:17;21.37;73.90
14154;DHT22;7157;53.144;7.570;2022-08-11T07:26:27;21.77;72.03
14154;DHT22;7157;53.144;7.570;2022-08-11T07:36:51;22.32;69.72
14154;DHT22;7157;53.144;7.570;2022-08-11T07:46:55;22.80;67.65
14154;DHT22;7157;53.144;7.570;2022-08-11T07:57:18;23.34;65.46
14154;DHT22;7157;53.144;7.570;2022-08-11T08:07:59;23.85;62.66
14154;DHT22;7157;53.144;7.570;2022-08-11T08:18:21;24.18;61.96
14154;DHT22;7157;53.144;7.570;2022-08-11T08:28:27;24.60;59.75
14154;DHT22;7157;53.144;7.570;2022-08-11T08:38:34;25.07;57.64
14154;DHT22;7157;53.144;7.570;2022-08-11T08:48:38;25.59;54.39
14154;DHT22;7157;53.144;7.570;2022-08-11T08:58:45;25.99;50.50
14154;DHT22;7157;53.144;7.570;2022-08-11T09:08:52;26.42;48.31
14154;DHT22;7157;53.144;7.570;2022-08-11T09:18:59;26.78;45.96
14154;DHT22;7157;53.144;7.570;2022-08-11T09:29:02;27.15;44.64
14154;DHT22;7157;53.144;7.570;2022-08-11T09:39:08;27.76;43.66
14154;DHT22;7157;53.144;7.570;2022-08-11T09:49:32;28.08;42.28
14154;DHT22;7157;53.144;7.570;2022-08-11T09:59:36;28.28;40.36
14154;DHT22;7157;53.144;7.570;2022-08-11T10:09:41;28.62;38.25
14154;DHT22;7157;53.144;7.570;2022-08-11T10:19:47;28.77;37.78
14154;DHT22;7157;53.144;7.570;2022-08-11T10:30:06;28.82;38.51
14154;DHT22;7157;53.144;7.570;2022-08-11T10:40:29;29.04;36.85
14154;DHT22;7157;53.144;7.570;2022-08-11T10:50:33;29.17;37.79
14154;DHT22;7157;53.144;7.570;2022-08-11T11:00:55;29.37;36.34
14154;DHT22;7157;53.144;7.570;2022-08-11T11:11:00;29.58;36.06
14154;DHT22;7157;53.144;7.570;2022-08-11T11:21:07;29.83;35.98
14154;DHT22;7157;53.144;7.570;2022-08-11T11:31:15;30.85;34.75
14154;DHT22;7157;53.144;7.570;2022-08-11T11:41:24;40.80;19.39
14154;DHT22;7157;53.144;7.570;2022-08-11T11:51:27;43.61;15.38
14154;DHT22;7157;53.144;7.570;2022-08-11T12:01:32;45.49;13.24
14154;DHT22;7157;53.144;7.570;2022-08-11T12:11:35;47.45;11.49
14154;DHT22;7157;53.144;7.570;2022-08-11T12:21:56;47.34;10.95
14154;DHT22;7157;53.144;7.570;2022-08-11T12:32:18;47.92;11.20
14154;DHT22;7157;53.144;7.570;2022-08-11T12:42:23;45.38;10.94
14154;DHT22;7157;53.144;7.570;2022-08-11T12:52:49;45.11;11.42
14154;DHT22;7157;53.144;7.570;2022-08-11T13:02:56;42.89;14.36
14154;DHT22;7157;53.144;7.570;2022-08-11T13:13:17;36.07;21.56
14154;DHT22;7157;53.144;7.570;2022-08-11T13:23:43;33.35;26.17
14154;DHT22;7157;53.144;7.570;2022-08-11T13:34:03;32.81;26.04
14154;DHT22;7157;53.144;7.570;2022-08-11T13:44:14;32.31;26.67
14154;DHT22;7157;53.144;7.570;2022-08-11T13:54:27;31.95;26.63
14154;DHT22;7157;53.144;7.570;2022-08-11T14:04:35;31.87;28.63
14154;DHT22;7157;53.144;7.570;2022-08-11T14:14:42;31.90;28.29
14154;DHT22;7157;53.144;7.570;2022-08-11T14:24:50;32.03;29.13
14154;DHT22;7157;53.144;7.570;2022-08-11T14:34:54;31.71;30.00
14154;DHT22;7157;53.144;7.570;2022-08-11T14:45:01;31.85;30.06
14154;DHT22;7157;53.144;7.570;2022-08-11T14:55:51;31.70;30.61
14154;DHT22;7157;53.144;7.570;2022-08-11T15:06:14;31.53;30.64
14154;DHT22;7157;53.144;7.570;2022-08-11T15:16:17;31.35;30.29
14154;DHT22;7157;53.144;7.570;2022-08-11T15:26:40;31.45;31.37
14154;DHT22;7157;53.144;7.570;2022-08-11T15:37:06;30.97;32.77
14154;DHT22;7157;53.144;7.570;2022-08-11T15:47:34;30.61;34.35
14154;DHT22;7157;53.144;7.570;2022-08-11T15:57:38;30.48;34.63
14154;DHT22;7157;53.144;7.570;2022-08-11T16:08:01;30.09;35.69
14154;DHT22;7157;53.144;7.570;2022-08-11T16:18:05;30.05;35.06
14154;DHT22;7157;53.144;7.570;2022-08-11T16:28:11;30.00;35.93
14154;DHT22;7157;53.144;7.570;2022-08-11T16:38:15;29.86;35.78
14154;DHT22;7157;53.144;7.570;2022-08-11T16:48:38;29.59;36.87
14154;DHT22;7157;53.144;7.570;2022-08-11T16:58:43;29.50;38.11
14154;DHT22;7157;53.144;7.570;2022-08-11T17:09:08;29.31;37.98
14154;DHT22;7157;53.144;7.570;2022-08-11T17:19:32;29.13;38.31
14154;DHT22;7157;53.144;7.570;2022-08-11T17:29:58;28.97;38.82
14154;DHT22;7157;53.144;7.570;2022-08-11T17:40:05;28.63;39.22
14154;DHT22;7157;53.144;7.570;2022-08-11T17:50:10;28.40;40.65
14154;DHT22;7157;53.144;7.570;2022-08-11T18:00:18;28.13;41.30
14154;DHT22;7157;53.144;7.570;2022-08-11T18:10:23;27.82;42.13
14154;DHT22;7157;53.144;7.570;2022-08-11T18:20:43;27.37;43.40
14154;DHT22;7157;53.144;7.570;2022-08-11T18:31:08;26.97;44.72
14154;DHT22;7157;53.144;7.570;2022-08-11T18:41:32;26.67;45.72
14154;DHT22;7157;53.144;7.570;2022-08-11T18:51:56;26.33;46.28
14154;DHT22;7157;53.144;7.570;2022-08-11T19:02:18;26.01;47.19
14154;DHT22;7157;53.144;7.570;2022-08-11T19:12:50;25.67;47.57
14154;DHT22;7157;53.144;7.570;2022-08-11T19:23:16;25.38;48.18
14154;DHT22;7157;53.144;7.570;2022-08-11T19:33:39;25.05;49.08
14154;DHT22;7157;53.144;7.570;2022-08-11T19:44:11;24.49;51.23
14154;DHT22;7157;53.144;7.570;2022-08-11T19:54:35;24.10;52.72
14154;DHT22;7157;53.144;7.570;2022-08-11T20:04:55;23.85;53.35
14154;DHT22;7157;53.144;7.570;2022-08-11T20:15:18;23.45;54.42
14154;DHT22;7157;53.144;7.570;2022-08-11T20:25:40;23.18;55.36
14154;DHT22;7157;53.144;7.570;2022-08-11T20:36:22;23.10;56.01
14154;DHT22;7157;53.144;7.570;2022-08-11T20:46:42;22.81;56.93
14154;DHT22;7157;53.144;7.570;2022-08-11T20:57:16;22.26;58.70
14154;DHT22;7157;53.144;7.570;2022-08-11T21:07:59;22.21;59.30
14154;DHT22;7157;53.144;7.570;2022-08-11T21:18:29;22.03;60.11
14154;DHT22;7157;53.144;7.570;2022-08-11T21:28:53;21.77;60.85
14154;DHT22;7157;53.144;7.570;2022-08-11T21:39:18;21.76;61.34
14154;DHT22;7157;53.144;7.570;2022-08-11T21:49:39;21.46;62.34
14154;DHT22;7157;53.144;7.570;2022-08-11T22:00:04;21.39;63.00
14154;DHT22;7157;53.144;7.570;2022-08-11T22:10:25;21.24;63.89
14154;DHT22;7157;53.144;7.570;2022-08-11T22:20:47;21.02;65.00
14154;DHT22;7157;53.144;7.570;2022-08-11T22:31:09;20.87;65.20
14154;DHT22;7157;53.144;7.570;2022-08-11T22:41:32;20.83;65.66
14154;DHT22;7157;53.144;7.570;2022-08-11T22:51:52;20.65;65.99
14154;DHT22;7157;53.144;7.570;2022-08-11T23:02:14;20.57;66.55
14154;DHT22;7157;53.144;7.570;2022-08-11T23:12:35;20.48;66.97
14154;DHT22;7157;53.144;7.570;2022-08-11T23:22:57;20.41;67.88
14154;DHT22;7157;53.144;7.570;2022-08-11T23:33:21;20.45;68.20
14154;DHT22;7157;53.144;7.570;2022-08-11T23:43:46;20.22;69.52
14154;DHT22;7157;53.144;7.570;2022-08-11T23:54:08;20.06;70.00
